createdAt,value
2023-04-15T00:01:07.023Z,97191.69
2023-04-15T00:03:35.260Z,97192.21
2023-04-15T00:06:02.501Z,97191.58
2023-04-15T00:08:30.343Z,97197.20
2023-04-15T00:10:59.472Z,97204.40
2023-04-15T00:13:26.207Z,97212.28
2023-04-15T00:15:53.382Z,97214.77
2023-04-15T00:18:20.228Z,97215.30
2023-04-15T00:20:47.179Z,97215.09
2023-04-15T00:23:14.064Z,97222.89
2023-04-15T00:25:40.969Z,97220.09
2023-04-15T00:28:08.626Z,97224.86
2023-04-15T00:30:35.657Z,97229.48
2023-04-15T00:33:02.477Z,97235.89
2023-04-15T00:35:29.648Z,97241.55
2023-04-15T00:37:56.451Z,97244.81
2023-04-15T00:40:24.960Z,97242.88
2023-04-15T00:42:52.675Z,97240.27
2023-04-15T00:45:19.907Z,97241.07
2023-04-15T00:47:46.865Z,97245.02
2023-04-15T00:50:14.224Z,97247.66
2023-04-15T00:52:41.572Z,97249.48
2023-04-15T00:55:09.490Z,97245.75
2023-04-15T00:57:36.965Z,97243.85
2023-04-15T01:00:05.799Z,97242.00
2023-04-15T01:02:33.568Z,97243.69
2023-04-15T01:05:04.198Z,97247.27
2023-04-15T01:07:32.087Z,97251.77
2023-04-15T01:09:59.408Z,97249.42
2023-04-15T01:12:27.583Z,97243.89
2023-04-15T01:14:56.219Z,97240.94
2023-04-15T01:17:24.599Z,97237.77
2023-04-15T01:19:52.929Z,97233.97
2023-04-15T01:22:19.767Z,97236.19
2023-04-15T01:24:55.878Z,97237.38
2023-04-15T01:27:23.342Z,97240.21
2023-04-15T01:29:50.082Z,97237.45
2023-04-15T01:32:17.262Z,97241.09
2023-04-15T01:34:44.208Z,97239.08
2023-04-15T01:37:11.345Z,97238.15
2023-04-15T01:39:38.011Z,97240.39
2023-04-15T01:42:04.895Z,97240.95
2023-04-15T01:44:31.755Z,97245.54
2023-04-15T01:46:58.743Z,97251.48
2023-04-15T01:49:26.611Z,97250.11
2023-04-15T01:51:54.335Z,97247.79
2023-04-15T01:54:21.593Z,97252.20
2023-04-15T01:56:48.372Z,97258.24
2023-04-15T01:59:15.204Z,97263.50
2023-04-15T02:01:42.218Z,97269.65
2023-04-15T02:04:16.489Z,97274.99
2023-04-15T02:06:44.117Z,97281.23
2023-04-15T02:09:12.503Z,97281.13
2023-04-15T02:11:39.496Z,97284.50
2023-04-15T02:14:06.530Z,97285.45
2023-04-15T02:16:34.010Z,97282.16
2023-04-15T02:19:01.441Z,97281.95
2023-04-15T02:21:28.470Z,97284.46
2023-04-15T02:23:55.194Z,97282.97
2023-04-15T02:26:22.490Z,97289.86
2023-04-15T02:28:51.395Z,97285.59
2023-04-15T02:31:18.260Z,97291.33
2023-04-15T02:33:46.710Z,97288.92
2023-04-15T02:36:13.517Z,97292.69
2023-04-15T02:38:42.601Z,97295.63
2023-04-15T02:41:10.621Z,97295.70
2023-04-15T02:43:38.156Z,97294.44
2023-04-15T02:46:05.777Z,97301.19
2023-04-15T02:48:32.564Z,97305.02
2023-04-15T02:51:16.951Z,97301.80
2023-04-15T02:53:43.852Z,97306.85
2023-04-15T02:56:11.850Z,97305.84
2023-04-15T02:58:39.448Z,97307.55
2023-04-15T03:02:11.362Z,97314.98
2023-04-15T03:04:54.922Z,97318.53
2023-04-15T03:07:22.506Z,97318.08
2023-04-15T03:09:49.333Z,97327.99
2023-04-15T03:12:16.284Z,97329.98
2023-04-15T03:14:43.179Z,97323.80
2023-04-15T03:17:10.011Z,97323.96
2023-04-15T03:19:38.770Z,97323.41
2023-04-15T03:22:05.881Z,97327.61
2023-04-15T03:24:32.643Z,97333.80
2023-04-15T03:26:59.534Z,97337.48
2023-04-15T03:29:26.687Z,97343.36
2023-04-15T03:31:53.907Z,97344.18
2023-04-15T03:34:20.873Z,97348.05
2023-04-15T03:36:47.744Z,97352.27
2023-04-15T03:39:14.537Z,97356.28
2023-04-15T03:41:41.372Z,97360.68
2023-04-15T03:44:08.273Z,97367.48
2023-04-15T03:46:35.021Z,97375.19
2023-04-15T03:49:02.704Z,97378.26
2023-04-15T03:51:29.991Z,97379.38
2023-04-15T03:53:57.115Z,97386.05
2023-04-15T03:56:24.144Z,97389.80
2023-04-15T03:58:51.191Z,97386.14
2023-04-15T04:01:17.890Z,97388.61
2023-04-15T04:03:44.750Z,97393.61
2023-04-15T04:06:13.103Z,97392.27
2023-04-15T04:08:39.894Z,97394.55
2023-04-15T04:11:06.772Z,97393.12
2023-04-15T04:13:33.483Z,97396.04
2023-04-15T04:16:00.330Z,97401.19
2023-04-15T04:18:27.162Z,97405.56
2023-04-15T04:20:54.119Z,97400.27
2023-04-15T04:23:21.428Z,97403.31
2023-04-15T04:25:48.379Z,97408.18
2023-04-15T04:28:15.099Z,97414.53
2023-04-15T04:30:41.917Z,97420.38
2023-04-15T04:33:08.773Z,97422.58
2023-04-15T04:35:37.800Z,97431.80
2023-04-15T04:38:05.010Z,97434.55
2023-04-15T04:40:31.764Z,97433.80
2023-04-15T04:42:58.512Z,97428.45
2023-04-15T04:45:25.304Z,97426.78
2023-04-15T04:47:52.151Z,97423.02
2023-04-15T04:50:18.982Z,97427.83
2023-04-15T04:52:46.080Z,97424.52
2023-04-15T04:55:13.276Z,97427.10
2023-04-15T04:57:40.330Z,97422.98
2023-04-15T05:00:09.045Z,97424.88
2023-04-15T05:02:36.284Z,97427.01
2023-04-15T05:05:03.217Z,97426.41
2023-04-15T05:07:29.976Z,97420.71
2023-04-15T05:09:57.443Z,97410.23
2023-04-15T05:12:24.226Z,97412.80
2023-04-15T05:14:51.351Z,97412.68
2023-04-15T05:17:18.201Z,97418.05
2023-04-15T05:19:45.063Z,97423.77
2023-04-15T05:22:11.791Z,97427.10
2023-04-15T05:24:38.696Z,97429.67
2023-04-15T05:27:05.443Z,97429.58
2023-04-15T05:29:32.273Z,97428.91
2023-04-15T05:31:59.064Z,97426.81
2023-04-15T05:34:26.136Z,97422.90
2023-04-15T05:36:52.846Z,97425.41
2023-04-15T05:39:19.595Z,97426.59
2023-04-15T05:41:46.838Z,97429.05
2023-04-15T05:44:13.622Z,97432.81
2023-04-15T05:46:40.529Z,97438.88
2023-04-15T05:49:07.916Z,97437.40
2023-04-15T05:51:34.727Z,97434.99
2023-04-15T05:54:01.964Z,97436.59
2023-04-15T05:56:28.915Z,97437.74
2023-04-15T05:58:55.631Z,97443.55
2023-04-15T06:01:22.591Z,97448.11
2023-04-15T06:03:49.437Z,97453.79
2023-04-15T06:06:16.337Z,97458.19
2023-04-15T06:08:43.163Z,97457.20
2023-04-15T06:11:09.883Z,97456.70
2023-04-15T06:13:36.629Z,97459.70
2023-04-15T06:16:04.422Z,97463.67
2023-04-15T06:18:31.168Z,97459.03
2023-04-15T06:20:57.969Z,97456.41
2023-04-15T06:23:26.422Z,97454.77
2023-04-15T06:25:54.406Z,97455.39
2023-04-15T06:28:21.243Z,97459.62
2023-04-15T06:30:47.998Z,97460.27
2023-04-15T06:33:15.846Z,97458.41
2023-04-15T06:35:42.660Z,97461.99
2023-04-15T06:38:09.405Z,97465.07
2023-04-15T06:40:36.274Z,97463.36
2023-04-15T06:43:03.068Z,97457.10
2023-04-15T06:45:29.827Z,97462.39
2023-04-15T06:47:56.754Z,97460.59
2023-04-15T06:50:24.112Z,97462.64
2023-04-15T06:52:50.942Z,97466.38
2023-04-15T06:55:17.834Z,97481.06
2023-04-15T06:57:44.614Z,97486.98
2023-04-15T07:00:12.364Z,97486.18
2023-04-15T07:02:39.512Z,97483.75
2023-04-15T07:05:07.162Z,97485.09
2023-04-15T07:07:33.914Z,97485.20
2023-04-15T07:10:02.205Z,97483.67
2023-04-15T07:12:29.069Z,97486.00
2023-04-15T07:14:55.843Z,97483.02
2023-04-15T07:17:23.688Z,97488.70
2023-04-15T07:19:50.516Z,97490.53
2023-04-15T07:22:18.429Z,97491.69
2023-04-15T07:24:45.151Z,97493.04
2023-04-15T07:27:12.060Z,97498.25
2023-04-15T07:29:38.843Z,97499.48
2023-04-15T07:32:05.971Z,97497.69
2023-04-15T07:34:32.873Z,97498.94
2023-04-15T07:36:59.629Z,97501.90
2023-04-15T07:39:26.460Z,97499.25
2023-04-15T07:41:53.625Z,97498.41
2023-04-15T07:44:20.504Z,97496.17
2023-04-15T07:46:48.069Z,97491.05
2023-04-15T07:49:15.714Z,97487.48
2023-04-15T07:51:42.485Z,97486.70
2023-04-15T07:54:09.276Z,97483.35
2023-04-15T07:56:36.272Z,97486.35
2023-04-15T07:59:04.765Z,97488.17
2023-04-15T08:01:33.030Z,97485.90
2023-04-15T08:04:03.996Z,97486.05
2023-04-15T08:06:31.019Z,97483.60
2023-04-15T08:08:58.820Z,97484.91
2023-04-15T08:11:26.296Z,97485.34
2023-04-15T08:13:53.359Z,97487.89
2023-04-15T08:16:22.642Z,97489.89
2023-04-15T08:18:50.980Z,97491.20
2023-04-15T08:21:19.311Z,97488.45
2023-04-15T08:23:47.837Z,97487.57
2023-04-15T08:26:15.352Z,97486.66
2023-04-15T08:28:45.994Z,97484.56
2023-04-15T08:31:15.005Z,97484.79
2023-04-15T08:33:42.438Z,97486.94
2023-04-15T08:36:09.774Z,97488.64
2023-04-15T08:38:37.542Z,97489.84
2023-04-15T08:41:23.859Z,97490.34
2023-04-15T08:43:54.958Z,97491.40
2023-04-15T08:46:22.745Z,97486.02
2023-04-15T08:48:50.197Z,97483.84
2023-04-15T08:51:18.532Z,97485.44
2023-04-15T08:53:47.504Z,97488.84
2023-04-15T08:56:16.855Z,97489.55
2023-04-15T08:58:45.072Z,97491.20
2023-04-15T09:01:13.264Z,97492.59
2023-04-15T09:03:40.943Z,97490.58
2023-04-15T09:06:08.490Z,97493.05
2023-04-15T09:08:35.873Z,97496.15
2023-04-15T09:11:03.750Z,97499.29
2023-04-15T09:13:30.626Z,97499.70
2023-04-15T09:15:58.530Z,97494.07
2023-04-15T09:18:30.187Z,97494.45
2023-04-15T09:20:57.416Z,97494.56
2023-04-15T09:23:24.243Z,97495.88
2023-04-15T09:25:51.138Z,97489.31
2023-04-15T09:28:25.723Z,97493.08
2023-04-15T09:30:57.885Z,97494.20
2023-04-15T09:33:27.152Z,97494.59
2023-04-15T09:35:58.115Z,97499.51
2023-04-15T09:38:24.980Z,97503.05
2023-04-15T09:40:52.230Z,97499.72
2023-04-15T09:43:19.323Z,97495.88
2023-04-15T09:45:54.359Z,97490.59
2023-04-15T09:48:27.064Z,97491.40
2023-04-15T09:50:54.138Z,97492.73
2023-04-15T09:53:23.142Z,97499.20
2023-04-15T09:55:55.419Z,97494.30
2023-04-15T09:58:23.550Z,97493.86
2023-04-15T10:00:52.702Z,97491.80
2023-04-15T10:03:22.267Z,97491.37
2023-04-15T10:05:51.489Z,97497.45
2023-04-15T10:08:20.710Z,97500.67
2023-04-15T10:10:48.797Z,97499.14
2023-04-15T10:13:18.704Z,97498.16
2023-04-15T10:15:51.921Z,97495.73
2023-04-15T10:18:21.729Z,97494.20
2023-04-15T10:20:49.333Z,97495.41
2023-04-15T10:23:17.481Z,97496.58
2023-04-15T10:25:46.243Z,97500.03
2023-04-15T10:28:14.699Z,97499.20
2023-04-15T10:30:43.015Z,97498.15
2023-04-15T10:33:11.309Z,97494.23
2023-04-15T10:35:39.289Z,97487.05
2023-04-15T10:38:33.530Z,97488.55
2023-04-15T10:41:17.052Z,97486.70
2023-04-15T10:43:50.715Z,97493.48
2023-04-15T10:46:20.945Z,97492.38
2023-04-15T10:48:52.624Z,97497.08
2023-04-15T10:51:29.997Z,97500.98
2023-04-15T10:54:16.033Z,97503.67
2023-04-15T10:56:43.935Z,97506.94
2023-04-15T10:59:10.856Z,97505.41
2023-04-15T11:02:01.220Z,97504.45
2023-04-15T11:04:58.959Z,97502.86
2023-04-15T11:07:56.572Z,97499.92
2023-04-15T11:10:26.899Z,97502.48
2023-04-15T11:12:57.866Z,97500.40
2023-04-15T11:15:37.795Z,97499.46
2023-04-15T11:18:13.031Z,97503.59
2023-04-15T11:20:41.444Z,97505.42
2023-04-15T11:23:15.007Z,97499.86
2023-04-15T11:25:43.884Z,97501.62
2023-04-15T11:28:12.524Z,97502.23
2023-04-15T11:30:40.549Z,97504.73
2023-04-15T11:33:10.271Z,97505.65
2023-04-15T11:35:37.055Z,97505.20
2023-04-15T11:38:06.304Z,97502.53
2023-04-15T11:40:35.430Z,97504.08
2023-04-15T11:43:20.810Z,97508.96
2023-04-15T11:45:57.136Z,97506.55
2023-04-15T11:48:26.502Z,97504.89
2023-04-15T11:50:59.400Z,97509.16
2023-04-15T11:53:44.120Z,97510.70
2023-04-15T11:56:17.277Z,97511.88
2023-04-15T11:58:46.501Z,97516.27
2023-04-15T12:01:13.629Z,97516.99
2023-04-15T12:03:43.492Z,97519.27
2023-04-15T12:06:31.788Z,97514.70
2023-04-15T12:09:07.005Z,97516.33
2023-04-15T12:11:50.328Z,97515.44
2023-04-15T12:14:32.986Z,97514.69
2023-04-15T12:17:05.502Z,97514.47
2023-04-15T12:19:37.124Z,97516.96
2023-04-15T12:22:10.962Z,97519.73
2023-04-15T12:24:38.501Z,97519.57
2023-04-15T12:27:06.447Z,97524.71
2023-04-15T12:29:35.057Z,97525.83
2023-04-15T12:32:05.157Z,97525.66
2023-04-15T12:34:35.811Z,97524.72
2023-04-15T12:37:04.709Z,97521.60
2023-04-15T12:39:41.853Z,97523.42
2023-04-15T12:42:09.110Z,97521.16
2023-04-15T12:44:36.852Z,97521.09
2023-04-15T12:47:04.754Z,97517.88
2023-04-15T12:49:32.885Z,97518.41
2023-04-15T12:52:01.566Z,97518.68
2023-04-15T12:54:29.350Z,97518.25
2023-04-15T12:56:56.442Z,97514.66
2023-04-15T12:59:24.649Z,97513.73
2023-04-15T13:01:53.399Z,97506.38
2023-04-15T13:04:22.387Z,97504.58
2023-04-15T13:06:49.687Z,97501.80
2023-04-15T13:09:16.487Z,97498.02
2023-04-15T13:11:43.620Z,97504.08
2023-04-15T13:14:13.099Z,97508.70
2023-04-15T13:16:40.115Z,97515.75
2023-04-15T13:19:07.547Z,97514.91
2023-04-15T13:21:35.960Z,97520.90
2023-04-15T13:24:04.943Z,97517.48
2023-04-15T13:26:32.198Z,97519.64
2023-04-15T13:28:59.377Z,97511.08
2023-04-15T13:31:26.364Z,97509.89
2023-04-15T13:33:53.319Z,97505.38
2023-04-15T13:36:20.121Z,97513.43
2023-04-15T13:38:49.098Z,97518.80
2023-04-15T13:41:17.407Z,97523.35
2023-04-15T13:43:44.108Z,97525.48
2023-04-15T13:46:11.147Z,97525.27
2023-04-15T13:48:38.379Z,97524.33
2023-04-15T13:51:05.308Z,97526.81
2023-04-15T13:53:37.808Z,97527.05
2023-04-15T13:56:07.689Z,97522.30
2023-04-15T13:58:34.536Z,97522.33
2023-04-15T14:01:03.133Z,97519.45
2023-04-15T14:03:31.783Z,97520.98
2023-04-15T14:05:59.449Z,97523.73
2023-04-15T14:08:26.188Z,97524.71
2023-04-15T14:10:52.894Z,97526.61
2023-04-15T14:13:19.803Z,97529.36
2023-04-15T14:15:47.133Z,97529.54
2023-04-15T14:18:13.903Z,97525.25
2023-04-15T14:20:40.589Z,97527.51
2023-04-15T14:23:07.575Z,97531.42
2023-04-15T14:25:34.451Z,97538.15
2023-04-15T14:28:02.340Z,97538.83
2023-04-15T14:30:29.180Z,97536.86
2023-04-15T14:32:56.078Z,97548.90
2023-04-15T14:35:24.683Z,97551.74
2023-04-15T14:37:51.553Z,97550.98
2023-04-15T14:40:18.424Z,97556.33
2023-04-15T14:42:45.572Z,97556.39
2023-04-15T14:45:12.314Z,97558.59
2023-04-15T14:47:39.172Z,97555.13
2023-04-15T14:50:06.406Z,97559.31
2023-04-15T14:52:38.623Z,97555.67
2023-04-15T14:55:08.039Z,97557.66
2023-04-15T14:57:34.804Z,97551.42
2023-04-15T15:00:01.736Z,97550.52
2023-04-15T15:02:38.547Z,97563.73
2023-04-15T15:05:06.634Z,97558.52
2023-04-15T15:07:33.623Z,97562.08
2023-04-15T15:10:00.616Z,97567.22
2023-04-15T15:12:27.376Z,97565.52
2023-04-15T15:14:55.667Z,97567.00
2023-04-15T15:17:22.422Z,97568.01
2023-04-15T15:19:49.321Z,97570.27
2023-04-15T15:22:16.158Z,97571.84
2023-04-15T15:24:42.876Z,97579.27
2023-04-15T15:27:10.031Z,97580.41
2023-04-15T15:29:38.076Z,97584.47
2023-04-15T15:32:05.059Z,97584.46
2023-04-15T15:34:31.869Z,97585.80
2023-04-15T15:36:58.660Z,97586.64
2023-04-15T15:39:25.595Z,97591.79
2023-04-15T15:41:52.496Z,97587.11
2023-04-15T15:44:19.429Z,97588.41
2023-04-15T15:46:46.273Z,97587.21
2023-04-15T15:49:13.057Z,97588.30
2023-04-15T15:51:39.829Z,97591.28
2023-04-15T15:54:06.553Z,97594.41
2023-04-15T15:56:34.579Z,97589.66
2023-04-15T15:59:01.365Z,97595.05
2023-04-15T16:01:28.121Z,97598.02
2023-04-15T16:03:55.043Z,97598.84
2023-04-15T16:06:22.110Z,97598.51
2023-04-15T16:08:49.054Z,97594.86
2023-04-15T16:11:16.153Z,97594.40
2023-04-15T16:13:43.037Z,97595.69
2023-04-15T16:16:09.804Z,97591.40
2023-04-15T16:18:36.669Z,97589.70
2023-04-15T16:21:03.428Z,97590.77
2023-04-15T16:23:31.239Z,97595.90
2023-04-15T16:25:58.062Z,97600.09
2023-04-15T16:28:27.210Z,97603.55
2023-04-15T16:30:56.273Z,97602.56
2023-04-15T16:33:23.206Z,97605.51
2023-04-15T16:35:51.152Z,97606.27
2023-04-15T16:38:18.104Z,97612.85
2023-04-15T16:40:44.816Z,97614.06
2023-04-15T16:43:11.608Z,97617.23
2023-04-15T16:45:38.784Z,97622.45
2023-04-15T16:48:06.006Z,97646.77
2023-04-15T16:50:32.867Z,97661.20
2023-04-15T16:52:59.611Z,97674.89
2023-04-15T16:55:26.846Z,97685.25
2023-04-15T16:58:02.027Z,97686.61
2023-04-15T17:00:31.864Z,97690.41
2023-04-15T17:03:00.315Z,97696.56
2023-04-15T17:05:27.738Z,97715.30
2023-04-15T17:07:55.936Z,97721.20
2023-04-15T17:10:23.350Z,97729.87
2023-04-15T17:12:52.358Z,97731.37
2023-04-15T17:15:20.948Z,97734.50
2023-04-15T17:17:47.896Z,97741.77
2023-04-15T17:20:17.546Z,97739.63
2023-04-15T17:22:44.394Z,97735.62
2023-04-15T17:25:11.438Z,97736.89
2023-04-15T17:27:38.786Z,97740.29
2023-04-15T17:30:07.256Z,97740.37
2023-04-15T17:32:34.910Z,97745.20
2023-04-15T17:35:05.996Z,97749.88
2023-04-15T17:37:33.881Z,97746.59
2023-04-15T17:40:00.704Z,97747.05
2023-04-15T17:42:27.591Z,97749.92
2023-04-15T17:44:54.378Z,97751.06
2023-04-15T17:47:21.479Z,97755.09
2023-04-15T17:49:48.195Z,97756.23
2023-04-15T17:52:14.936Z,97764.35
2023-04-15T17:54:41.653Z,97770.34
2023-04-15T17:57:09.296Z,97783.33
2023-04-15T17:59:36.216Z,97798.73
2023-04-15T18:02:03.082Z,97807.75
2023-04-15T18:04:30.497Z,97812.14
2023-04-15T18:06:58.199Z,97817.94
2023-04-15T18:09:25.951Z,97821.73
2023-04-15T18:11:52.993Z,97823.30
2023-04-15T18:14:31.130Z,97823.77
2023-04-15T18:17:00.757Z,97830.92
2023-04-15T18:19:27.853Z,97842.36
2023-04-15T18:21:54.613Z,97846.51
2023-04-15T18:24:22.405Z,97852.92
2023-04-15T18:27:04.631Z,97852.91
2023-04-15T18:29:31.461Z,97849.55
2023-04-15T18:32:00.479Z,97851.02
2023-04-15T18:34:27.603Z,97849.05
2023-04-15T18:36:56.092Z,97850.36
2023-04-15T18:39:23.203Z,97853.91
2023-04-15T18:41:50.176Z,97855.66
2023-04-15T18:44:16.925Z,97852.83
2023-04-15T18:46:43.780Z,97852.48
2023-04-15T18:49:12.463Z,97853.04
2023-04-15T18:51:39.172Z,97849.16
2023-04-15T18:54:06.354Z,97847.88
2023-04-15T18:56:33.270Z,97850.11
2023-04-15T18:59:09.268Z,97852.23
2023-04-15T19:01:46.946Z,97854.45
2023-04-15T19:04:14.506Z,97861.35
2023-04-15T19:06:41.535Z,97863.94
2023-04-15T19:09:09.531Z,97867.64
2023-04-15T19:11:36.291Z,97874.20
2023-04-15T19:14:03.124Z,97882.83
2023-04-15T19:16:29.910Z,97882.66
2023-04-15T19:18:57.040Z,97882.70
2023-04-15T19:21:24.325Z,97886.48
2023-04-15T19:23:51.139Z,97889.52
2023-04-15T19:26:17.835Z,97892.43
2023-04-15T19:28:44.628Z,97896.87
2023-04-15T19:31:11.463Z,97898.59
2023-04-15T19:33:38.563Z,97899.08
2023-04-15T19:36:07.077Z,97897.90
2023-04-15T19:38:36.147Z,97899.32
2023-04-15T19:41:03.086Z,97897.55
2023-04-15T19:43:32.261Z,97904.23
2023-04-15T19:46:00.638Z,97902.00
2023-04-15T19:48:27.611Z,97907.08
2023-04-15T19:50:54.458Z,97912.14
2023-04-15T19:53:21.263Z,97913.80
2023-04-15T19:55:48.589Z,97917.24
2023-04-15T19:58:32.552Z,97918.55
2023-04-15T20:01:01.435Z,97919.58
2023-04-15T20:03:28.414Z,97918.75
2023-04-15T20:05:55.437Z,97919.30
2023-04-15T20:08:22.228Z,97920.02
2023-04-15T20:10:49.027Z,97923.48
2023-04-15T20:13:15.826Z,97923.64
2023-04-15T20:15:42.710Z,97925.47
2023-04-15T20:18:09.559Z,97930.62
2023-04-15T20:20:39.489Z,97936.27
2023-04-15T20:23:06.767Z,97938.13
2023-04-15T20:25:33.635Z,97943.96
2023-04-15T20:28:01.189Z,97940.55
2023-04-15T20:30:29.226Z,97947.38
2023-04-15T20:32:56.147Z,97945.68
2023-04-15T20:35:23.379Z,97948.58
2023-04-15T20:37:50.166Z,97942.77
2023-04-15T20:40:17.060Z,97946.37
2023-04-15T20:42:43.845Z,97942.11
2023-04-15T20:45:10.829Z,97943.30
2023-04-15T20:47:37.912Z,97946.14
2023-04-15T20:50:04.977Z,97946.59
2023-04-15T20:52:31.698Z,97952.06
2023-04-15T20:54:58.545Z,97953.13
2023-04-15T20:57:25.935Z,97953.89
2023-04-15T20:59:53.756Z,97957.02
2023-04-15T21:02:22.191Z,97960.55
2023-04-15T21:04:48.996Z,97960.20
2023-04-15T21:07:15.953Z,97967.88
2023-04-15T21:09:43.828Z,97970.81
2023-04-15T21:12:11.258Z,97975.11
2023-04-15T21:14:39.944Z,97981.39
2023-04-15T21:17:10.077Z,97978.41
2023-04-15T21:19:38.111Z,97980.11
2023-04-15T21:22:05.065Z,97980.59
2023-04-15T21:24:31.842Z,97978.57
2023-04-15T21:26:58.633Z,97978.45
2023-04-15T21:29:25.937Z,97984.67
2023-04-15T21:31:53.013Z,97991.12
2023-04-15T21:34:19.872Z,98002.26
2023-04-15T21:36:46.805Z,98006.14
2023-04-15T21:39:13.607Z,98010.97
2023-04-15T21:41:40.383Z,98018.67
2023-04-15T21:44:07.198Z,98020.17
2023-04-15T21:46:36.043Z,98025.38
2023-04-15T21:49:03.592Z,98023.92
2023-04-15T21:51:34.067Z,98028.46
2023-04-15T21:54:00.800Z,98026.61
2023-04-15T21:56:27.607Z,98026.71
2023-04-15T21:58:57.183Z,98029.60
2023-04-15T22:01:25.626Z,98030.77
2023-04-15T22:03:53.134Z,98033.64
2023-04-15T22:06:20.130Z,98041.86
2023-04-15T22:08:55.933Z,98044.33
2023-04-15T22:11:27.429Z,98048.23
2023-04-15T22:13:55.044Z,98049.95
2023-04-15T22:16:21.949Z,98049.45
2023-04-15T22:18:48.858Z,98054.20
2023-04-15T22:21:15.625Z,98056.13
2023-04-15T22:23:46.333Z,98054.46
2023-04-15T22:26:13.229Z,98052.92
2023-04-15T22:28:39.977Z,98056.70
2023-04-15T22:31:06.801Z,98062.70
2023-04-15T22:33:33.944Z,98059.95
2023-04-15T22:36:00.699Z,98066.33
2023-04-15T22:38:27.539Z,98068.38
2023-04-15T22:40:54.415Z,98073.80
2023-04-15T22:43:21.573Z,98077.55
2023-04-15T22:45:50.691Z,98081.57
2023-04-15T22:48:18.664Z,98087.61
2023-04-15T22:50:45.905Z,98092.23
2023-04-15T22:53:12.830Z,98096.39
2023-04-15T22:55:39.695Z,98099.48
2023-04-15T22:58:06.499Z,98102.95
2023-04-15T23:00:33.478Z,98105.98
2023-04-15T23:03:00.514Z,98108.58
2023-04-15T23:05:27.687Z,98107.90
2023-04-15T23:07:55.923Z,98110.35
2023-04-15T23:10:22.680Z,98108.13
2023-04-15T23:12:49.626Z,98108.08
2023-04-15T23:15:16.382Z,98112.05
2023-04-15T23:17:44.107Z,98114.42
2023-04-15T23:20:12.689Z,98115.55
2023-04-15T23:22:40.321Z,98115.14
2023-04-15T23:25:07.427Z,98115.65
2023-04-15T23:27:34.897Z,98119.45
2023-04-15T23:30:01.830Z,98120.81
2023-04-15T23:32:28.729Z,98119.77
2023-04-15T23:34:55.522Z,98121.25
2023-04-15T23:37:22.243Z,98120.06
2023-04-15T23:39:49.003Z,98120.79
2023-04-15T23:42:15.927Z,98119.77
2023-04-15T23:44:42.702Z,98121.98
2023-04-15T23:47:09.556Z,98124.95
2023-04-15T23:49:37.123Z,98128.36
2023-04-15T23:52:04.259Z,98126.61
2023-04-15T23:54:30.975Z,98125.30
2023-04-15T23:56:57.707Z,98125.14
2023-04-15T23:59:24.473Z,98124.48
